sensor_id;sensor_type;location;lat;lon;timestamp;P1;durP1;ratioP1;P2;durP2;ratioP2
21162;SDS011;10739;52.198;20.908;2023-02-03T00:01:47;5.65;;;3.50;;
21162;SDS011;10739;52.198;20.908;2023-02-03T00:04:14;6.65;;;3.53;;
21162;SDS011;10739;52.198;20.908;2023-02-03T00:06:40;8.15;;;3.58;;
21162;SDS011;10739;52.198;20.908;2023-02-03T00:09:07;5.88;;;3.28;;
21162;SDS011;10739;52.198;20.908;2023-02-03T00:11:34;5.53;;;3.13;;
21162;SDS011;10739;52.198;20.908;2023-02-03T00:14:00;6.60;;;3.20;;
21162;SDS011;10739;52.198;20.908;2023-02-03T00:16:27;8.93;;;4.30;;
21162;SDS011;10739;52.198;20.908;2023-02-03T00:18:53;7.70;;;4.38;;
21162;SDS011;10739;52.198;20.908;2023-02-03T00:21:19;10.10;;;3.70;;
21162;SDS011;10739;52.198;20.908;2023-02-03T00:23:46;9.38;;;3.40;;
21162;SDS011;10739;52.198;20.908;2023-02-03T00:26:13;6.57;;;3.67;;
21162;SDS011;10739;52.198;20.908;2023-02-03T00:28:42;5.18;;;3.03;;
21162;SDS011;10739;52.198;20.908;2023-02-03T00:31:19;4.65;;;3.00;;
21162;SDS011;10739;52.198;20.908;2023-02-03T00:33:52;6.88;;;3.55;;
21162;SDS011;10739;52.198;20.908;2023-02-03T00:36:21;4.25;;;2.85;;
21162;SDS011;10739;52.198;20.908;2023-02-03T00:38:48;8.98;;;3.13;;
21162;SDS011;10739;52.198;20.908;2023-02-03T00:41:15;4.80;;;2.90;;
21162;SDS011;10739;52.198;20.908;2023-02-03T00:43:42;5.47;;;3.50;;
21162;SDS011;10739;52.198;20.908;2023-02-03T00:46:09;5.00;;;3.05;;
21162;SDS011;10739;52.198;20.908;2023-02-03T00:48:35;5.45;;;3.15;;
21162;SDS011;10739;52.198;20.908;2023-02-03T00:51:02;7.07;;;3.47;;
21162;SDS011;10739;52.198;20.908;2023-02-03T00:53:29;7.00;;;3.60;;
21162;SDS011;10739;52.198;20.908;2023-02-03T00:55:55;4.93;;;3.15;;
21162;SDS011;10739;52.198;20.908;2023-02-03T00:58:22;6.65;;;3.08;;
21162;SDS011;10739;52.198;20.908;2023-02-03T01:00:48;8.13;;;3.28;;
21162;SDS011;10739;52.198;20.908;2023-02-03T01:03:15;5.63;;;3.30;;
21162;SDS011;10739;52.198;20.908;2023-02-03T01:05:41;3.75;;;2.75;;
21162;SDS011;10739;52.198;20.908;2023-02-03T01:08:08;4.20;;;3.00;;
21162;SDS011;10739;52.198;20.908;2023-02-03T01:10:36;6.53;;;3.22;;
21162;SDS011;10739;52.198;20.908;2023-02-03T01:13:03;4.03;;;3.03;;
21162;SDS011;10739;52.198;20.908;2023-02-03T01:15:30;6.38;;;3.13;;
21162;SDS011;10739;52.198;20.908;2023-02-03T01:17:56;5.38;;;3.15;;
21162;SDS011;10739;52.198;20.908;2023-02-03T01:20:22;4.88;;;3.00;;
21162;SDS011;10739;52.198;20.908;2023-02-03T01:22:49;5.78;;;3.08;;
21162;SDS011;10739;52.198;20.908;2023-02-03T01:25:15;7.45;;;3.00;;
21162;SDS011;10739;52.198;20.908;2023-02-03T01:27:41;6.22;;;2.95;;
21162;SDS011;10739;52.198;20.908;2023-02-03T01:30:08;7.18;;;3.38;;
21162;SDS011;10739;52.198;20.908;2023-02-03T01:32:35;7.18;;;2.80;;
21162;SDS011;10739;52.198;20.908;2023-02-03T01:35:01;4.18;;;2.80;;
21162;SDS011;10739;52.198;20.908;2023-02-03T01:37:28;4.32;;;2.95;;
21162;SDS011;10739;52.198;20.908;2023-02-03T01:39:54;4.90;;;2.65;;
21162;SDS011;10739;52.198;20.908;2023-02-03T01:42:20;7.15;;;3.17;;
21162;SDS011;10739;52.198;20.908;2023-02-03T01:44:47;4.82;;;2.45;;
21162;SDS011;10739;52.198;20.908;2023-02-03T01:50:06;5.60;;;2.50;;
21162;SDS011;10739;52.198;20.908;2023-02-03T01:52:46;3.88;;;2.60;;
21162;SDS011;10739;52.198;20.908;2023-02-03T01:55:21;4.05;;;2.20;;
21162;SDS011;10739;52.198;20.908;2023-02-03T01:58:00;6.30;;;2.47;;
21162;SDS011;10739;52.198;20.908;2023-02-03T02:00:39;5.70;;;2.60;;
21162;SDS011;10739;52.198;20.908;2023-02-03T02:03:07;6.30;;;2.72;;
21162;SDS011;10739;52.198;20.908;2023-02-03T02:05:40;4.85;;;2.67;;
21162;SDS011;10739;52.198;20.908;2023-02-03T02:08:24;5.00;;;2.42;;
21162;SDS011;10739;52.198;20.908;2023-02-03T02:10:52;4.63;;;2.67;;
21162;SDS011;10739;52.198;20.908;2023-02-03T02:13:18;5.05;;;2.47;;
21162;SDS011;10739;52.198;20.908;2023-02-03T02:28:15;5.03;;;2.38;;
21162;SDS011;10739;52.198;20.908;2023-02-03T02:40:29;3.10;;;1.95;;
21162;SDS011;10739;52.198;20.908;2023-02-03T02:43:12;2.90;;;2.10;;
21162;SDS011;10739;52.198;20.908;2023-02-03T02:46:08;5.45;;;2.60;;
21162;SDS011;10739;52.198;20.908;2023-02-03T02:48:48;4.15;;;2.70;;
21162;SDS011;10739;52.198;20.908;2023-02-03T02:51:25;4.85;;;2.30;;
21162;SDS011;10739;52.198;20.908;2023-02-03T02:53:55;5.13;;;2.83;;
21162;SDS011;10739;52.198;20.908;2023-02-03T02:56:27;6.18;;;2.80;;
21162;SDS011;10739;52.198;20.908;2023-02-03T02:58:58;7.57;;;3.75;;
21162;SDS011;10739;52.198;20.908;2023-02-03T03:01:31;5.40;;;2.92;;
21162;SDS011;10739;52.198;20.908;2023-02-03T03:03:59;4.80;;;3.10;;
21162;SDS011;10739;52.198;20.908;2023-02-03T03:06:31;6.68;;;3.70;;
21162;SDS011;10739;52.198;20.908;2023-02-03T03:09:20;7.68;;;3.78;;
21162;SDS011;10739;52.198;20.908;2023-02-03T03:11:53;7.47;;;4.43;;
21162;SDS011;10739;52.198;20.908;2023-02-03T03:14:27;6.68;;;4.47;;
21162;SDS011;10739;52.198;20.908;2023-02-03T03:16:59;6.93;;;4.65;;
21162;SDS011;10739;52.198;20.908;2023-02-03T03:19:33;8.18;;;4.50;;
21162;SDS011;10739;52.198;20.908;2023-02-03T03:22:06;8.70;;;5.50;;
21162;SDS011;10739;52.198;20.908;2023-02-03T03:24:46;7.78;;;5.20;;
21162;SDS011;10739;52.198;20.908;2023-02-03T03:27:25;9.05;;;5.30;;
21162;SDS011;10739;52.198;20.908;2023-02-03T03:30:03;6.93;;;4.85;;
21162;SDS011;10739;52.198;20.908;2023-02-03T03:32:35;7.20;;;4.90;;
21162;SDS011;10739;52.198;20.908;2023-02-03T03:35:03;7.18;;;4.60;;
21162;SDS011;10739;52.198;20.908;2023-02-03T03:45:42;8.55;;;4.90;;
21162;SDS011;10739;52.198;20.908;2023-02-03T03:48:33;9.43;;;5.13;;
21162;SDS011;10739;52.198;20.908;2023-02-03T03:51:18;8.48;;;5.40;;
21162;SDS011;10739;52.198;20.908;2023-02-03T03:54:00;9.15;;;5.35;;
21162;SDS011;10739;52.198;20.908;2023-02-03T03:56:38;11.30;;;6.03;;
21162;SDS011;10739;52.198;20.908;2023-02-03T03:59:35;11.95;;;5.28;;
21162;SDS011;10739;52.198;20.908;2023-02-03T04:02:05;10.30;;;5.90;;
21162;SDS011;10739;52.198;20.908;2023-02-03T04:04:32;7.65;;;5.20;;
21162;SDS011;10739;52.198;20.908;2023-02-03T04:07:03;8.83;;;5.53;;
21162;SDS011;10739;52.198;20.908;2023-02-03T04:09:30;8.35;;;4.90;;
21162;SDS011;10739;52.198;20.908;2023-02-03T04:11:56;7.70;;;4.80;;
21162;SDS011;10739;52.198;20.908;2023-02-03T04:14:27;8.00;;;5.43;;
21162;SDS011;10739;52.198;20.908;2023-02-03T04:16:55;8.70;;;4.78;;
21162;SDS011;10739;52.198;20.908;2023-02-03T04:19:22;11.82;;;5.80;;
21162;SDS011;10739;52.198;20.908;2023-02-03T04:21:49;10.57;;;5.45;;
21162;SDS011;10739;52.198;20.908;2023-02-03T04:24:15;10.15;;;5.80;;
21162;SDS011;10739;52.198;20.908;2023-02-03T04:26:42;10.43;;;5.80;;
21162;SDS011;10739;52.198;20.908;2023-02-03T04:29:08;9.95;;;5.75;;
21162;SDS011;10739;52.198;20.908;2023-02-03T04:31:35;11.70;;;6.20;;
21162;SDS011;10739;52.198;20.908;2023-02-03T04:34:03;13.48;;;6.78;;
21162;SDS011;10739;52.198;20.908;2023-02-03T04:36:30;13.43;;;6.50;;
21162;SDS011;10739;52.198;20.908;2023-02-03T04:38:56;10.10;;;6.90;;
21162;SDS011;10739;52.198;20.908;2023-02-03T04:41:23;12.02;;;7.60;;
21162;SDS011;10739;52.198;20.908;2023-02-03T04:43:49;10.68;;;7.10;;
21162;SDS011;10739;52.198;20.908;2023-02-03T04:46:16;12.45;;;7.80;;
21162;SDS011;10739;52.198;20.908;2023-02-03T04:48:43;14.50;;;7.50;;
21162;SDS011;10739;52.198;20.908;2023-02-03T04:51:09;11.98;;;7.50;;
21162;SDS011;10739;52.198;20.908;2023-02-03T04:53:36;11.90;;;6.72;;
21162;SDS011;10739;52.198;20.908;2023-02-03T04:56:02;11.05;;;6.53;;
21162;SDS011;10739;52.198;20.908;2023-02-03T04:58:29;9.93;;;6.32;;
21162;SDS011;10739;52.198;20.908;2023-02-03T05:00:55;10.85;;;5.85;;
21162;SDS011;10739;52.198;20.908;2023-02-03T05:03:21;16.63;;;6.82;;
21162;SDS011;10739;52.198;20.908;2023-02-03T05:05:48;11.40;;;6.72;;
21162;SDS011;10739;52.198;20.908;2023-02-03T05:08:15;9.75;;;6.57;;
21162;SDS011;10739;52.198;20.908;2023-02-03T05:10:42;9.10;;;5.90;;
21162;SDS011;10739;52.198;20.908;2023-02-03T05:13:08;10.35;;;5.82;;
21162;SDS011;10739;52.198;20.908;2023-02-03T05:15:34;12.00;;;6.15;;
21162;SDS011;10739;52.198;20.908;2023-02-03T05:18:01;15.57;;;6.53;;
21162;SDS011;10739;52.198;20.908;2023-02-03T05:20:27;15.02;;;5.95;;
21162;SDS011;10739;52.198;20.908;2023-02-03T05:22:53;11.75;;;6.15;;
21162;SDS011;10739;52.198;20.908;2023-02-03T05:25:20;15.77;;;5.47;;
21162;SDS011;10739;52.198;20.908;2023-02-03T05:27:46;12.60;;;6.05;;
21162;SDS011;10739;52.198;20.908;2023-02-03T05:30:12;10.45;;;5.47;;
21162;SDS011;10739;52.198;20.908;2023-02-03T05:32:38;9.77;;;5.57;;
21162;SDS011;10739;52.198;20.908;2023-02-03T05:35:05;11.48;;;6.13;;
21162;SDS011;10739;52.198;20.908;2023-02-03T05:37:32;13.02;;;6.28;;
21162;SDS011;10739;52.198;20.908;2023-02-03T05:39:58;14.25;;;6.20;;
21162;SDS011;10739;52.198;20.908;2023-02-03T05:42:48;11.57;;;5.97;;
21162;SDS011;10739;52.198;20.908;2023-02-03T05:45:15;14.52;;;6.50;;
21162;SDS011;10739;52.198;20.908;2023-02-03T05:47:42;12.13;;;6.00;;
21162;SDS011;10739;52.198;20.908;2023-02-03T05:50:09;13.43;;;6.82;;
21162;SDS011;10739;52.198;20.908;2023-02-03T05:52:35;13.88;;;6.35;;
21162;SDS011;10739;52.198;20.908;2023-02-03T05:55:02;11.68;;;6.85;;
21162;SDS011;10739;52.198;20.908;2023-02-03T05:57:29;12.55;;;7.00;;
21162;SDS011;10739;52.198;20.908;2023-02-03T05:59:55;14.70;;;7.03;;
21162;SDS011;10739;52.198;20.908;2023-02-03T06:02:21;14.38;;;7.47;;
21162;SDS011;10739;52.198;20.908;2023-02-03T06:04:47;15.30;;;9.10;;
21162;SDS011;10739;52.198;20.908;2023-02-03T06:07:14;15.32;;;9.82;;
21162;SDS011;10739;52.198;20.908;2023-02-03T06:09:40;14.50;;;8.95;;
21162;SDS011;10739;52.198;20.908;2023-02-03T06:12:06;16.15;;;9.57;;
21162;SDS011;10739;52.198;20.908;2023-02-03T06:14:33;18.60;;;9.27;;
21162;SDS011;10739;52.198;20.908;2023-02-03T06:16:59;16.60;;;8.20;;
21162;SDS011;10739;52.198;20.908;2023-02-03T06:19:25;16.35;;;7.93;;
21162;SDS011;10739;52.198;20.908;2023-02-03T06:21:52;14.52;;;8.13;;
21162;SDS011;10739;52.198;20.908;2023-02-03T06:24:18;14.60;;;7.43;;
21162;SDS011;10739;52.198;20.908;2023-02-03T06:26:44;13.55;;;7.47;;
21162;SDS011;10739;52.198;20.908;2023-02-03T06:29:11;10.60;;;6.38;;
21162;SDS011;10739;52.198;20.908;2023-02-03T06:31:37;13.27;;;7.13;;
21162;SDS011;10739;52.198;20.908;2023-02-03T06:34:03;14.05;;;7.45;;
21162;SDS011;10739;52.198;20.908;2023-02-03T06:36:29;16.00;;;7.50;;
21162;SDS011;10739;52.198;20.908;2023-02-03T06:38:56;10.18;;;6.65;;
21162;SDS011;10739;52.198;20.908;2023-02-03T06:41:23;15.95;;;7.40;;
21162;SDS011;10739;52.198;20.908;2023-02-03T06:43:54;11.95;;;7.25;;
21162;SDS011;10739;52.198;20.908;2023-02-03T06:46:21;17.42;;;8.45;;
21162;SDS011;10739;52.198;20.908;2023-02-03T06:48:47;12.95;;;8.23;;
21162;SDS011;10739;52.198;20.908;2023-02-03T06:51:14;14.52;;;7.75;;
21162;SDS011;10739;52.198;20.908;2023-02-03T06:53:40;15.30;;;7.30;;
21162;SDS011;10739;52.198;20.908;2023-02-03T06:56:07;11.70;;;7.32;;
21162;SDS011;10739;52.198;20.908;2023-02-03T06:58:33;13.30;;;7.93;;
21162;SDS011;10739;52.198;20.908;2023-02-03T07:00:59;16.90;;;7.88;;
21162;SDS011;10739;52.198;20.908;2023-02-03T07:03:25;17.50;;;9.63;;
21162;SDS011;10739;52.198;20.908;2023-02-03T07:05:51;12.70;;;8.50;;
21162;SDS011;10739;52.198;20.908;2023-02-03T07:08:18;12.52;;;8.52;;
21162;SDS011;10739;52.198;20.908;2023-02-03T07:10:44;12.18;;;7.50;;
21162;SDS011;10739;52.198;20.908;2023-02-03T07:13:10;11.38;;;6.63;;
21162;SDS011;10739;52.198;20.908;2023-02-03T07:15:37;12.75;;;6.45;;
21162;SDS011;10739;52.198;20.908;2023-02-03T07:18:03;11.13;;;6.55;;
21162;SDS011;10739;52.198;20.908;2023-02-03T07:20:30;11.07;;;6.22;;
21162;SDS011;10739;52.198;20.908;2023-02-03T07:22:57;13.00;;;6.20;;
21162;SDS011;10739;52.198;20.908;2023-02-03T07:25:23;17.60;;;8.00;;
21162;SDS011;10739;52.198;20.908;2023-02-03T07:27:51;12.60;;;6.95;;
21162;SDS011;10739;52.198;20.908;2023-02-03T07:30:18;10.30;;;6.15;;
21162;SDS011;10739;52.198;20.908;2023-02-03T07:32:46;12.23;;;6.60;;
21162;SDS011;10739;52.198;20.908;2023-02-03T07:35:16;11.10;;;6.97;;
21162;SDS011;10739;52.198;20.908;2023-02-03T07:37:45;10.73;;;6.70;;
21162;SDS011;10739;52.198;20.908;2023-02-03T07:40:12;13.07;;;6.30;;
21162;SDS011;10739;52.198;20.908;2023-02-03T07:42:40;13.40;;;6.13;;
21162;SDS011;10739;52.198;20.908;2023-02-03T07:45:13;10.25;;;5.47;;
21162;SDS011;10739;52.198;20.908;2023-02-03T07:47:42;9.48;;;5.63;;
21162;SDS011;10739;52.198;20.908;2023-02-03T07:50:09;13.10;;;6.32;;
21162;SDS011;10739;52.198;20.908;2023-02-03T07:52:37;12.05;;;5.68;;
21162;SDS011;10739;52.198;20.908;2023-02-03T07:55:04;11.57;;;5.75;;
21162;SDS011;10739;52.198;20.908;2023-02-03T07:57:31;10.00;;;5.47;;
21162;SDS011;10739;52.198;20.908;2023-02-03T07:59:57;16.50;;;5.47;;
21162;SDS011;10739;52.198;20.908;2023-02-03T08:02:24;10.50;;;5.38;;
21162;SDS011;10739;52.198;20.908;2023-02-03T08:04:50;9.45;;;5.22;;
21162;SDS011;10739;52.198;20.908;2023-02-03T08:07:17;9.15;;;4.80;;
21162;SDS011;10739;52.198;20.908;2023-02-03T08:09:43;9.82;;;4.63;;
21162;SDS011;10739;52.198;20.908;2023-02-03T08:12:09;8.65;;;4.53;;
21162;SDS011;10739;52.198;20.908;2023-02-03T08:14:36;11.55;;;4.20;;
21162;SDS011;10739;52.198;20.908;2023-02-03T08:17:02;10.75;;;4.80;;
21162;SDS011;10739;52.198;20.908;2023-02-03T08:19:28;11.23;;;4.10;;
21162;SDS011;10739;52.198;20.908;2023-02-03T08:21:54;10.13;;;4.55;;
21162;SDS011;10739;52.198;20.908;2023-02-03T08:24:21;7.38;;;4.30;;
21162;SDS011;10739;52.198;20.908;2023-02-03T08:26:47;10.57;;;4.53;;
21162;SDS011;10739;52.198;20.908;2023-02-03T08:29:13;7.50;;;4.03;;
21162;SDS011;10739;52.198;20.908;2023-02-03T08:31:40;8.93;;;4.15;;
21162;SDS011;10739;52.198;20.908;2023-02-03T08:34:07;10.73;;;4.90;;
21162;SDS011;10739;52.198;20.908;2023-02-03T08:36:33;8.25;;;4.00;;
21162;SDS011;10739;52.198;20.908;2023-02-03T08:39:03;8.65;;;4.10;;
21162;SDS011;10739;52.198;20.908;2023-02-03T08:41:31;10.15;;;3.97;;
21162;SDS011;10739;52.198;20.908;2023-02-03T08:43:58;8.48;;;3.92;;
21162;SDS011;10739;52.198;20.908;2023-02-03T08:46:26;8.35;;;4.00;;
21162;SDS011;10739;52.198;20.908;2023-02-03T08:48:53;11.90;;;4.70;;
21162;SDS011;10739;52.198;20.908;2023-02-03T08:51:21;7.55;;;3.60;;
21162;SDS011;10739;52.198;20.908;2023-02-03T08:53:48;6.00;;;3.47;;
21162;SDS011;10739;52.198;20.908;2023-02-03T08:56:15;9.55;;;3.92;;
21162;SDS011;10739;52.198;20.908;2023-02-03T08:58:41;8.00;;;3.90;;
21162;SDS011;10739;52.198;20.908;2023-02-03T09:01:14;7.65;;;3.40;;
21162;SDS011;10739;52.198;20.908;2023-02-03T09:03:40;6.45;;;3.55;;
21162;SDS011;10739;52.198;20.908;2023-02-03T09:06:08;7.65;;;4.00;;
21162;SDS011;10739;52.198;20.908;2023-02-03T09:08:37;6.72;;;3.50;;
21162;SDS011;10739;52.198;20.908;2023-02-03T09:11:07;8.18;;;4.05;;
21162;SDS011;10739;52.198;20.908;2023-02-03T09:13:39;11.27;;;3.50;;
21162;SDS011;10739;52.198;20.908;2023-02-03T09:16:13;7.97;;;4.03;;
21162;SDS011;10739;52.198;20.908;2023-02-03T09:18:42;7.05;;;3.58;;
21162;SDS011;10739;52.198;20.908;2023-02-03T09:21:12;7.82;;;3.45;;
21162;SDS011;10739;52.198;20.908;2023-02-03T09:23:41;4.82;;;3.25;;
21162;SDS011;10739;52.198;20.908;2023-02-03T09:26:10;7.90;;;3.70;;
21162;SDS011;10739;52.198;20.908;2023-02-03T09:28:39;9.18;;;3.30;;
21162;SDS011;10739;52.198;20.908;2023-02-03T09:31:07;8.80;;;3.70;;
21162;SDS011;10739;52.198;20.908;2023-02-03T09:33:37;7.25;;;3.20;;
21162;SDS011;10739;52.198;20.908;2023-02-03T09:36:05;10.02;;;3.80;;
21162;SDS011;10739;52.198;20.908;2023-02-03T09:38:33;7.18;;;2.83;;
21162;SDS011;10739;52.198;20.908;2023-02-03T09:43:45;7.55;;;4.03;;
21162;SDS011;10739;52.198;20.908;2023-02-03T09:46:49;10.60;;;2.50;;
21162;SDS011;10739;52.198;20.908;2023-02-03T09:57:31;3.70;;;2.50;;
21162;SDS011;10739;52.198;20.908;2023-02-03T10:00:13;6.60;;;2.92;;
21162;SDS011;10739;52.198;20.908;2023-02-03T10:11:25;4.50;;;2.50;;
21162;SDS011;10739;52.198;20.908;2023-02-03T10:14:52;5.00;;;2.38;;
21162;SDS011;10739;52.198;20.908;2023-02-03T10:17:37;6.38;;;2.30;;
21162;SDS011;10739;52.198;20.908;2023-02-03T10:20:16;7.40;;;2.97;;
21162;SDS011;10739;52.198;20.908;2023-02-03T10:23:05;5.15;;;2.33;;
21162;SDS011;10739;52.198;20.908;2023-02-03T10:28:18;11.15;;;2.67;;
21162;SDS011;10739;52.198;20.908;2023-02-03T10:30:52;3.60;;;2.13;;
21162;SDS011;10739;52.198;20.908;2023-02-03T10:33:29;2.83;;;2.15;;
21162;SDS011;10739;52.198;20.908;2023-02-03T10:36:06;6.63;;;2.20;;
21162;SDS011;10739;52.198;20.908;2023-02-03T10:42:05;3.28;;;2.25;;
21162;SDS011;10739;52.198;20.908;2023-02-03T10:50:17;4.32;;;2.20;;
21162;SDS011;10739;52.198;20.908;2023-02-03T10:55:51;3.78;;;2.35;;
21162;SDS011;10739;52.198;20.908;2023-02-03T10:58:33;10.30;;;3.08;;
21162;SDS011;10739;52.198;20.908;2023-02-03T11:03:36;5.82;;;2.92;;
21162;SDS011;10739;52.198;20.908;2023-02-03T11:06:16;8.63;;;2.60;;
21162;SDS011;10739;52.198;20.908;2023-02-03T11:08:46;6.47;;;3.42;;
21162;SDS011;10739;52.198;20.908;2023-02-03T11:11:19;7.93;;;3.30;;
21162;SDS011;10739;52.198;20.908;2023-02-03T11:13:55;9.30;;;3.13;;
21162;SDS011;10739;52.198;20.908;2023-02-03T11:16:40;7.70;;;3.47;;
21162;SDS011;10739;52.198;20.908;2023-02-03T11:19:17;14.05;;;2.58;;
21162;SDS011;10739;52.198;20.908;2023-02-03T11:21:47;5.55;;;2.58;;
21162;SDS011;10739;52.198;20.908;2023-02-03T11:24:22;6.60;;;3.15;;
21162;SDS011;10739;52.198;20.908;2023-02-03T11:29:50;9.57;;;2.92;;
21162;SDS011;10739;52.198;20.908;2023-02-03T11:32:36;7.00;;;2.90;;
21162;SDS011;10739;52.198;20.908;2023-02-03T11:37:49;6.07;;;2.78;;
21162;SDS011;10739;52.198;20.908;2023-02-03T11:40:23;6.65;;;2.88;;
21162;SDS011;10739;52.198;20.908;2023-02-03T11:51:59;5.70;;;2.65;;
21162;SDS011;10739;52.198;20.908;2023-02-03T12:00:10;6.20;;;2.88;;
21162;SDS011;10739;52.198;20.908;2023-02-03T12:09:19;11.02;;;3.25;;
21162;SDS011;10739;52.198;20.908;2023-02-03T12:12:23;7.22;;;3.03;;
21162;SDS011;10739;52.198;20.908;2023-02-03T12:29:33;5.03;;;2.33;;
21162;SDS011;10739;52.198;20.908;2023-02-03T12:35:18;7.00;;;3.08;;
21162;SDS011;10739;52.198;20.908;2023-02-03T12:46:15;6.35;;;3.00;;
21162;SDS011;10739;52.198;20.908;2023-02-03T12:48:59;7.20;;;3.10;;
21162;SDS011;10739;52.198;20.908;2023-02-03T12:51:53;5.32;;;3.10;;
21162;SDS011;10739;52.198;20.908;2023-02-03T12:54:35;9.13;;;4.03;;
21162;SDS011;10739;52.198;20.908;2023-02-03T12:57:35;8.10;;;3.35;;
21162;SDS011;10739;52.198;20.908;2023-02-03T13:06:03;8.70;;;3.70;;
21162;SDS011;10739;52.198;20.908;2023-02-03T13:15:18;7.78;;;3.88;;
21162;SDS011;10739;52.198;20.908;2023-02-03T13:18:24;7.57;;;3.92;;
21162;SDS011;10739;52.198;20.908;2023-02-03T13:20:56;6.50;;;3.97;;
21162;SDS011;10739;52.198;20.908;2023-02-03T13:23:23;13.88;;;4.03;;
21162;SDS011;10739;52.198;20.908;2023-02-03T13:26:02;9.32;;;4.22;;
21162;SDS011;10739;52.198;20.908;2023-02-03T13:29:03;9.68;;;4.93;;
21162;SDS011;10739;52.198;20.908;2023-02-03T13:38:12;13.63;;;5.07;;
21162;SDS011;10739;52.198;20.908;2023-02-03T13:43:54;8.82;;;4.82;;
21162;SDS011;10739;52.198;20.908;2023-02-03T13:46:24;10.73;;;5.32;;
21162;SDS011;10739;52.198;20.908;2023-02-03T13:48:59;11.57;;;5.10;;
21162;SDS011;10739;52.198;20.908;2023-02-03T13:51:29;17.95;;;6.90;;
21162;SDS011;10739;52.198;20.908;2023-02-03T13:54:14;7.90;;;6.03;;
21162;SDS011;10739;52.198;20.908;2023-02-03T13:56:59;15.82;;;6.53;;
21162;SDS011;10739;52.198;20.908;2023-02-03T14:04:53;14.82;;;6.95;;
21162;SDS011;10739;52.198;20.908;2023-02-03T14:21:09;15.30;;;8.27;;
21162;SDS011;10739;52.198;20.908;2023-02-03T14:23:42;18.08;;;9.45;;
21162;SDS011;10739;52.198;20.908;2023-02-03T14:26:15;19.08;;;9.27;;
21162;SDS011;10739;52.198;20.908;2023-02-03T14:28:49;17.13;;;9.05;;
21162;SDS011;10739;52.198;20.908;2023-02-03T14:31:22;19.17;;;10.93;;
21162;SDS011;10739;52.198;20.908;2023-02-03T14:33:55;22.45;;;10.40;;
21162;SDS011;10739;52.198;20.908;2023-02-03T14:36:50;19.42;;;10.77;;
21162;SDS011;10739;52.198;20.908;2023-02-03T14:45:09;22.67;;;10.00;;
21162;SDS011;10739;52.198;20.908;2023-02-03T14:47:48;21.08;;;10.23;;
21162;SDS011;10739;52.198;20.908;2023-02-03T15:05:39;17.17;;;10.45;;
21162;SDS011;10739;52.198;20.908;2023-02-03T15:11:22;17.40;;;10.00;;
21162;SDS011;10739;52.198;20.908;2023-02-03T15:14:18;22.73;;;10.95;;
21162;SDS011;10739;52.198;20.908;2023-02-03T15:16:49;19.77;;;10.98;;
21162;SDS011;10739;52.198;20.908;2023-02-03T15:19:27;27.85;;;12.57;;
21162;SDS011;10739;52.198;20.908;2023-02-03T15:21:59;25.35;;;12.18;;
21162;SDS011;10739;52.198;20.908;2023-02-03T15:24:32;22.77;;;11.95;;
21162;SDS011;10739;52.198;20.908;2023-02-03T15:27:02;19.52;;;11.30;;
21162;SDS011;10739;52.198;20.908;2023-02-03T15:29:29;21.60;;;10.80;;
21162;SDS011;10739;52.198;20.908;2023-02-03T15:32:02;20.02;;;10.20;;
21162;SDS011;10739;52.198;20.908;2023-02-03T15:34:42;17.02;;;9.45;;
21162;SDS011;10739;52.198;20.908;2023-02-03T15:37:26;19.80;;;9.30;;
21162;SDS011;10739;52.198;20.908;2023-02-03T15:40:14;19.38;;;9.52;;
21162;SDS011;10739;52.198;20.908;2023-02-03T15:51:20;15.20;;;9.18;;
21162;SDS011;10739;52.198;20.908;2023-02-03T15:54:36;15.43;;;9.07;;
21162;SDS011;10739;52.198;20.908;2023-02-03T15:59:54;15.75;;;9.48;;
21162;SDS011;10739;52.198;20.908;2023-02-03T16:02:31;14.52;;;9.50;;
21162;SDS011;10739;52.198;20.908;2023-02-03T16:07:47;22.48;;;10.55;;
21162;SDS011;10739;52.198;20.908;2023-02-03T16:10:30;20.35;;;11.68;;
21162;SDS011;10739;52.198;20.908;2023-02-03T16:16:50;18.50;;;10.48;;
21162;SDS011;10739;52.198;20.908;2023-02-03T16:18:55;19.63;;;10.93;;
21162;SDS011;10739;52.198;20.908;2023-02-03T16:21:35;17.13;;;10.73;;
21162;SDS011;10739;52.198;20.908;2023-02-03T16:29:46;19.92;;;10.38;;
21162;SDS011;10739;52.198;20.908;2023-02-03T16:32:31;20.98;;;11.15;;
21162;SDS011;10739;52.198;20.908;2023-02-03T16:35:16;21.90;;;11.48;;
21162;SDS011;10739;52.198;20.908;2023-02-03T16:38:13;21.52;;;11.07;;
21162;SDS011;10739;52.198;20.908;2023-02-03T16:41:02;20.77;;;11.57;;
21162;SDS011;10739;52.198;20.908;2023-02-03T16:43:59;19.58;;;11.70;;
21162;SDS011;10739;52.198;20.908;2023-02-03T16:46:45;20.25;;;11.82;;
21162;SDS011;10739;52.198;20.908;2023-02-03T16:49:30;21.80;;;11.45;;
21162;SDS011;10739;52.198;20.908;2023-02-03T16:52:15;32.83;;;13.50;;
21162;SDS011;10739;52.198;20.908;2023-02-03T16:54:42;25.77;;;12.98;;
21162;SDS011;10739;52.198;20.908;2023-02-03T16:57:08;21.25;;;12.57;;
21162;SDS011;10739;52.198;20.908;2023-02-03T16:59:34;20.73;;;12.57;;
21162;SDS011;10739;52.198;20.908;2023-02-03T17:02:01;24.45;;;13.18;;
21162;SDS011;10739;52.198;20.908;2023-02-03T17:04:27;24.48;;;12.95;;
21162;SDS011;10739;52.198;20.908;2023-02-03T17:06:54;20.45;;;12.52;;
21162;SDS011;10739;52.198;20.908;2023-02-03T17:09:20;26.15;;;14.10;;
21162;SDS011;10739;52.198;20.908;2023-02-03T17:11:49;23.45;;;13.63;;
21162;SDS011;10739;52.198;20.908;2023-02-03T17:14:15;24.77;;;13.95;;
21162;SDS011;10739;52.198;20.908;2023-02-03T17:16:42;22.50;;;13.15;;
21162;SDS011;10739;52.198;20.908;2023-02-03T17:19:09;23.13;;;13.75;;
21162;SDS011;10739;52.198;20.908;2023-02-03T17:21:36;25.38;;;13.82;;
21162;SDS011;10739;52.198;20.908;2023-02-03T17:24:03;25.25;;;13.43;;
21162;SDS011;10739;52.198;20.908;2023-02-03T17:26:30;26.83;;;13.95;;
21162;SDS011;10739;52.198;20.908;2023-02-03T17:28:58;22.85;;;13.65;;
21162;SDS011;10739;52.198;20.908;2023-02-03T17:31:28;28.48;;;14.77;;
21162;SDS011;10739;52.198;20.908;2023-02-03T17:33:55;20.27;;;13.77;;
21162;SDS011;10739;52.198;20.908;2023-02-03T17:36:22;22.95;;;13.00;;
21162;SDS011;10739;52.198;20.908;2023-02-03T17:38:53;23.13;;;14.68;;
21162;SDS011;10739;52.198;20.908;2023-02-03T17:41:24;21.65;;;14.30;;
21162;SDS011;10739;52.198;20.908;2023-02-03T17:43:53;28.60;;;13.45;;
21162;SDS011;10739;52.198;20.908;2023-02-03T17:46:21;21.58;;;13.07;;
21162;SDS011;10739;52.198;20.908;2023-02-03T17:48:50;26.90;;;14.30;;
21162;SDS011;10739;52.198;20.908;2023-02-03T17:51:18;22.80;;;13.00;;
21162;SDS011;10739;52.198;20.908;2023-02-03T17:53:49;19.10;;;13.38;;
21162;SDS011;10739;52.198;20.908;2023-02-03T17:56:19;22.65;;;13.35;;
21162;SDS011;10739;52.198;20.908;2023-02-03T17:58:53;19.15;;;12.45;;
21162;SDS011;10739;52.198;20.908;2023-02-03T18:01:23;23.00;;;13.25;;
21162;SDS011;10739;52.198;20.908;2023-02-03T18:03:51;25.00;;;12.75;;
21162;SDS011;10739;52.198;20.908;2023-02-03T18:06:24;18.90;;;12.38;;
21162;SDS011;10739;52.198;20.908;2023-02-03T18:08:52;24.48;;;13.65;;
21162;SDS011;10739;52.198;20.908;2023-02-03T18:11:19;22.00;;;14.20;;
21162;SDS011;10739;52.198;20.908;2023-02-03T18:13:46;21.42;;;13.32;;
21162;SDS011;10739;52.198;20.908;2023-02-03T18:16:15;22.58;;;14.55;;
21162;SDS011;10739;52.198;20.908;2023-02-03T18:18:50;19.65;;;13.23;;
21162;SDS011;10739;52.198;20.908;2023-02-03T18:21:18;25.10;;;14.05;;
21162;SDS011;10739;52.198;20.908;2023-02-03T18:23:47;24.08;;;13.52;;